Time,TemperatureF,DewpointF,PressureIn,WindDirection,WindDirectionDegrees,WindSpeedMPH,WindSpeedGustMPH,Humidity,HourlyPrecipIn,Conditions,Clouds,dailyrainin,SoftwareType,DateUTC
2013-12-08 18:51:00,17.2,11.0,29.93,North,-999,0.0,0.0,76,0.00,,,0.00,pywws,2013-12-09 00:51:00,
2013-12-08 19:11:00,17.4,11.2,29.93,North,-999,0.0,0.0,76,0.00,,,0.00,pywws,2013-12-09 01:11:00,
2013-12-08 19:31:00,17.4,11.2,29.93,North,-999,0.0,0.0,76,0.00,,,0.00,pywws,2013-12-09 01:31:00,
2013-12-08 19:41:00,17.4,10.9,29.94,North,-999,0.0,0.0,75,0.00,,,0.00,pywws,2013-12-09 01:41:00,
2013-12-08 19:51:00,17.4,10.9,29.93,North,-999,0.0,0.0,75,0.00,,,0.00,pywws,2013-12-09 01:51:00,
2013-12-08 20:11:00,17.4,11.2,29.93,North,-999,0.0,0.0,76,0.00,,,0.00,pywws,2013-12-09 02:11:00,
2013-12-08 20:21:00,17.4,11.2,29.92,North,-999,0.0,0.0,76,0.00,,,0.00,pywws,2013-12-09 02:21:00,
2013-12-08 20:31:00,17.2,11.0,29.92,North,-999,0.0,0.0,76,0.00,,,0.00,pywws,2013-12-09 02:31:00,
2013-12-08 20:41:00,17.2,11.0,29.93,North,-999,0.0,0.0,76,0.00,,,0.00,pywws,2013-12-09 02:41:00,
2013-12-08 20:51:00,17.1,10.8,29.93,North,-999,0.0,0.0,76,0.00,,,0.00,pywws,2013-12-09 02:51:00,
2013-12-08 21:01:00,17.1,11.1,29.93,North,-999,0.0,0.0,77,0.00,,,0.00,pywws,2013-12-09 03:01:00,
2013-12-08 21:11:00,16.9,10.9,29.91,North,-999,0.0,0.0,77,0.00,,,0.00,pywws,2013-12-09 03:11:00,
2013-12-08 21:31:00,16.9,10.9,29.92,North,-999,0.0,0.0,77,0.00,,,0.00,pywws,2013-12-09 03:31:00,
2013-12-08 22:11:00,16.9,11.2,29.92,North,-999,0.0,0.0,78,0.00,,,0.00,pywws,2013-12-09 04:11:00,
2013-12-08 22:21:00,16.9,11.2,29.92,North,-999,0.0,0.0,78,0.00,,,0.00,pywws,2013-12-09 04:21:00,
2013-12-08 22:31:00,16.9,11.2,29.91,North,-999,0.0,0.0,78,0.00,,,0.00,pywws,2013-12-09 04:31:00,
2013-12-08 22:41:00,16.9,11.2,29.92,North,-999,0.0,0.0,78,0.00,,,0.00,pywws,2013-12-09 04:41:00,
2013-12-08 22:51:00,16.9,11.2,29.92,North,-999,0.0,0.0,78,0.00,,,0.00,pywws,2013-12-09 04:51:00,
2013-12-08 23:01:00,16.7,11.1,29.91,North,-999,0.0,0.0,78,0.00,,,0.00,pywws,2013-12-09 05:01:00,
2013-12-08 23:11:00,16.7,11.1,29.91,North,-999,0.0,0.0,78,0.00,,,0.00,pywws,2013-12-09 05:11:00,
2013-12-08 23:21:00,16.5,10.9,29.90,North,-999,0.0,0.0,78,0.00,,,0.00,pywws,2013-12-09 05:21:00,
2013-12-08 23:31:00,16.3,10.7,29.90,North,-999,0.0,0.0,78,0.00,,,0.00,pywws,2013-12-09 05:31:00,
2013-12-08 23:42:00,16.2,10.5,29.90,North,-999,0.0,0.0,78,0.00,,,0.00,pywws,2013-12-09 05:42:00,
2013-12-08 23:51:00,16.0,10.4,29.91,North,-999,0.0,0.0,78,0.00,,,0.00,pywws,2013-12-09 05:51:00,